createdAt,value
2018-03-22T00:00:00.219Z,-1.6
2018-03-22T00:00:49.994Z,-1.6
2018-03-22T00:01:40.351Z,-1.6
2018-03-22T00:02:30.419Z,-1.6
2018-03-22T00:03:20.530Z,-1.7
2018-03-22T00:04:10.249Z,-1.7
2018-03-22T00:05:00.319Z,-1.7
2018-03-22T00:05:50.358Z,-1.7
2018-03-22T00:06:40.517Z,-1.7
2018-03-22T00:07:30.471Z,-1.7
2018-03-22T00:08:20.821Z,-1.7
2018-03-22T00:09:10.584Z,-1.7
2018-03-22T00:10:00.363Z,-1.7
2018-03-22T00:10:50.985Z,-1.7
2018-03-22T00:11:41.045Z,-1.7
2018-03-22T00:12:30.832Z,-1.8
2018-03-22T00:13:20.870Z,-1.7
2018-03-22T00:14:10.538Z,-1.7
2018-03-22T00:15:00.710Z,-1.7
2018-03-22T00:15:50.757Z,-1.7
2018-03-22T00:16:41.111Z,-1.8
2018-03-22T00:17:31.177Z,-1.8
2018-03-22T00:18:21.538Z,-1.8
2018-03-22T00:19:11.346Z,-1.8
2018-03-22T00:20:01.438Z,-1.8
2018-03-22T00:20:51.418Z,-1.8
2018-03-22T00:22:31.811Z,-1.8
2018-03-22T00:23:21.680Z,-1.8
2018-03-22T00:24:11.946Z,-1.8
2018-03-22T00:25:01.681Z,-1.8
2018-03-22T00:25:51.467Z,-1.8
2018-03-22T00:26:42.123Z,-1.8
2018-03-22T00:27:32.137Z,-1.8
2018-03-22T00:28:21.925Z,-1.8
2018-03-22T00:29:12.303Z,-1.8
2018-03-22T00:30:01.847Z,-1.8
2018-03-22T00:30:51.829Z,-1.8
2018-03-22T00:31:42.165Z,-1.8
2018-03-22T00:32:32.489Z,-1.8
2018-03-22T00:33:22.285Z,-1.8
2018-03-22T00:34:12.632Z,-1.8
2018-03-22T00:35:01.805Z,-1.8
2018-03-22T00:35:52.735Z,-1.8
2018-03-22T00:36:42.524Z,-1.8
2018-03-22T00:37:32.573Z,-1.9
2018-03-22T00:38:22.926Z,-1.8
2018-03-22T00:39:13.106Z,-1.9
2018-03-22T00:40:02.756Z,-1.8
2018-03-22T00:40:52.513Z,-1.9
2018-03-22T00:41:42.666Z,-1.8
2018-03-22T00:42:33.217Z,-1.8
2018-03-22T00:43:22.978Z,-1.8
2018-03-22T00:44:12.541Z,-1.9
2018-03-22T00:45:03.402Z,-1.9
2018-03-22T00:45:52.744Z,-1.9
2018-03-22T00:46:42.918Z,-1.9
2018-03-22T00:47:32.978Z,-1.9
2018-03-22T00:48:23.041Z,-1.9
2018-03-22T00:49:13.367Z,-1.9
2018-03-22T00:50:03.538Z,-1.9
2018-03-22T00:50:53.483Z,-1.9
2018-03-22T00:51:43.642Z,-1.9
2018-03-22T00:52:33.314Z,-1.9
2018-03-22T00:53:23.976Z,-1.9
2018-03-22T00:54:13.631Z,-1.9
2018-03-22T00:55:03.594Z,-1.9
2018-03-22T00:55:53.563Z,-1.9
2018-03-22T00:56:43.704Z,-1.9
2018-03-22T00:57:34.264Z,-1.9
2018-03-22T00:58:23.436Z,-1.9
2018-03-22T00:59:13.796Z,-1.9
2018-03-22T01:00:04.402Z,-1.9
2018-03-22T01:00:54.208Z,-1.9
2018-03-22T01:01:43.960Z,-1.9
2018-03-22T01:02:34.605Z,-1.9
2018-03-22T01:03:24.373Z,-1.9
2018-03-22T01:04:14.442Z,-1.9
2018-03-22T01:05:04.499Z,-1.9
2018-03-22T01:05:54.246Z,-1.9
2018-03-22T01:06:44.589Z,-1.9
2018-03-22T01:07:34.962Z,-1.9
2018-03-22T01:08:24.524Z,-2
2018-03-22T01:09:15.073Z,-1.9
2018-03-22T01:10:04.605Z,-1.9
2018-03-22T01:10:55.172Z,-2
2018-03-22T01:11:44.970Z,-1.9
2018-03-22T01:12:35.120Z,-2
2018-03-22T01:13:25.075Z,-2
2018-03-22T01:14:15.142Z,-1.9
2018-03-22T01:15:04.892Z,-2
2018-03-22T01:15:55.531Z,-1.9
2018-03-22T01:16:45.014Z,-2
2018-03-22T01:17:35.368Z,-2
2018-03-22T01:18:25.130Z,-2
2018-03-22T01:19:14.992Z,-2
2018-03-22T01:20:05.252Z,-2
2018-03-22T01:20:55.405Z,-2
2018-03-22T01:21:45.660Z,-2
2018-03-22T01:22:35.507Z,-2
2018-03-22T01:23:25.377Z,-2
2018-03-22T01:24:15.537Z,-2
2018-03-22T01:25:05.602Z,-2
2018-03-22T01:25:55.748Z,-2
2018-03-22T01:26:46.304Z,-2
2018-03-22T01:27:35.773Z,-2
2018-03-22T01:28:26.384Z,-2
2018-03-22T01:29:15.884Z,-2.1
2018-03-22T01:30:06.042Z,-2
2018-03-22T01:30:56.005Z,-2.1
2018-03-22T01:31:45.947Z,-2.1
2018-03-22T01:32:36.129Z,-2.1
2018-03-22T01:33:26.184Z,-2
2018-03-22T01:34:16.524Z,-2.1
2018-03-22T01:35:06.894Z,-2.1
2018-03-22T01:35:56.356Z,-2.1
2018-03-22T01:36:46.708Z,-2.1
2018-03-22T01:37:37.064Z,-2.1
2018-03-22T01:38:26.531Z,-2.1
2018-03-22T01:39:16.877Z,-2.1
2018-03-22T01:40:06.652Z,-2.1
2018-03-22T01:40:56.801Z,-2.1
2018-03-22T01:41:47.051Z,-2.1
2018-03-22T01:42:36.831Z,-2.1
2018-03-22T01:43:27.461Z,-2.1
2018-03-22T01:44:16.735Z,-2.1
2018-03-22T01:45:07.073Z,-2.1
2018-03-22T01:45:57.357Z,-2.1
2018-03-22T01:46:47.387Z,-2.1
2018-03-22T01:47:37.761Z,-2.1
2018-03-22T01:48:27.813Z,-2.1
2018-03-22T01:49:17.558Z,-2.1
2018-03-22T01:50:07.628Z,-2.1
2018-03-22T01:50:57.681Z,-2.1
2018-03-22T01:51:48.024Z,-2.1
2018-03-22T01:52:37.595Z,-2.1
2018-03-22T01:53:27.883Z,-2.1
2018-03-22T01:54:17.930Z,-2.1
2018-03-22T01:55:08.273Z,-2.1
2018-03-22T01:55:57.840Z,-2.1
2018-03-22T01:56:47.813Z,-2.1
2018-03-22T01:57:38.146Z,-2.1
2018-03-22T01:58:28.513Z,-2.1
2018-03-22T01:59:17.780Z,-2.1
2018-03-22T02:00:08.324Z,-2.1
2018-03-22T02:00:58.373Z,-2.1
2018-03-22T02:01:48.800Z,-2.1
2018-03-22T02:02:38.785Z,-2.1
2018-03-22T02:03:28.577Z,-2.1
2018-03-22T02:04:18.702Z,-2.1
2018-03-22T02:05:08.484Z,-2.1
2018-03-22T02:05:58.544Z,-2.1
2018-03-22T02:06:49.064Z,-2.1
2018-03-22T02:07:38.569Z,-2.1
2018-03-22T02:08:29.004Z,-2.1
2018-03-22T02:09:18.957Z,-2.1
2018-03-22T02:10:09.090Z,-2.1
2018-03-22T02:10:59.374Z,-2.1
2018-03-22T02:11:49.443Z,-2.2
2018-03-22T02:12:39.189Z,-2.2
2018-03-22T02:13:29.272Z,-2.2
2018-03-22T02:14:19.026Z,-2.2
2018-03-22T02:15:09.092Z,-2.2
2018-03-22T02:15:59.430Z,-2.2
2018-03-22T02:16:49.478Z,-2.2
2018-03-22T02:17:39.272Z,-2.2
2018-03-22T02:18:29.902Z,-2.2
2018-03-22T02:19:19.671Z,-2.2
2018-03-22T02:20:09.440Z,-2.2
2018-03-22T02:20:59.787Z,-2.2
2018-03-22T02:21:49.354Z,-2.2
2018-03-22T02:22:39.705Z,-2.2
2018-03-22T02:23:29.957Z,-2.2
2018-03-22T02:24:20.296Z,-2.2
2018-03-22T02:25:10.084Z,-2.2
2018-03-22T02:26:00.141Z,-2.2
2018-03-22T02:26:50.187Z,-2.2
2018-03-22T02:27:40.244Z,-2.2
2018-03-22T02:28:30.303Z,-2.2
2018-03-22T02:29:20.091Z,-2.2
2018-03-22T02:30:10.430Z,-2.2
2018-03-22T02:31:00.478Z,-2.2
2018-03-22T02:31:50.548Z,-2.2
2018-03-22T02:32:40.403Z,-2.2
2018-03-22T02:33:30.668Z,-2.2
2018-03-22T02:34:20.717Z,-2.2
2018-03-22T02:35:10.381Z,-2.2
2018-03-22T02:36:00.353Z,-2.2
2018-03-22T02:36:51.184Z,-2.3
2018-03-22T02:37:40.963Z,-2.2
2018-03-22T02:38:31.007Z,-2.2
2018-03-22T02:39:21.070Z,-2.3
2018-03-22T02:40:11.445Z,-2.3
2018-03-22T02:41:01.182Z,-2.3
2018-03-22T02:41:51.050Z,-2.3
2018-03-22T02:42:41.023Z,-2.3
2018-03-22T02:43:31.079Z,-2.3
2018-03-22T02:44:21.727Z,-2.3
2018-03-22T02:45:11.493Z,-2.3
2018-03-22T02:46:01.525Z,-2.3
2018-03-22T02:46:51.601Z,-2.3
2018-03-22T02:47:41.665Z,-2.3
2018-03-22T02:48:31.602Z,-2.3
2018-03-22T02:49:22.079Z,-2.3
2018-03-22T02:50:11.815Z,-2.3
2018-03-22T02:51:02.231Z,-2.3
2018-03-22T02:51:51.932Z,-2.3
2018-03-22T02:52:41.806Z,-2.3
2018-03-22T02:53:32.068Z,-2.3
2018-03-22T02:54:22.125Z,-2.3
2018-03-22T02:55:12.188Z,-2.3
2018-03-22T02:56:01.964Z,-2.3
2018-03-22T02:56:52.010Z,-2.3
2018-03-22T02:57:42.152Z,-2.3
2018-03-22T02:58:32.217Z,-2.3
2018-03-22T02:59:22.187Z,-2.3
2018-03-22T03:00:12.637Z,-2.3
2018-03-22T03:01:02.587Z,-2.3
2018-03-22T03:01:52.636Z,-2.3
2018-03-22T03:02:42.410Z,-2.3
2018-03-22T03:03:32.764Z,-2.3
2018-03-22T03:04:22.628Z,-2.3
2018-03-22T03:05:12.582Z,-2.3
2018-03-22T03:06:03.016Z,-2.3
2018-03-22T03:06:52.788Z,-2.3
2018-03-22T03:07:43.050Z,-2.3
2018-03-22T03:08:33.124Z,-2.3
2018-03-22T03:09:22.965Z,-2.3
2018-03-22T03:10:12.933Z,-2.3
2018-03-22T03:11:02.794Z,-2.3
2018-03-22T03:11:52.936Z,-2.3
2018-03-22T03:12:43.198Z,-2.3
2018-03-22T03:13:33.730Z,-2.3
2018-03-22T03:14:23.789Z,-2.3
2018-03-22T03:15:13.588Z,-2.3
2018-03-22T03:16:03.916Z,-2.3
2018-03-22T03:16:53.698Z,-2.3
2018-03-22T03:17:43.545Z,-2.4
2018-03-22T03:18:33.604Z,-2.3
2018-03-22T03:19:23.876Z,-2.4
2018-03-22T03:20:13.915Z,-2.3
2018-03-22T03:21:04.053Z,-2.4
2018-03-22T03:21:54.021Z,-2.4
2018-03-22T03:22:43.810Z,-2.3
2018-03-22T03:23:34.425Z,-2.4
2018-03-22T03:24:24.211Z,-2.4
2018-03-22T03:25:14.360Z,-2.4
2018-03-22T03:26:04.020Z,-2.4
2018-03-22T03:26:54.182Z,-2.4
2018-03-22T03:27:44.155Z,-2.4
2018-03-22T03:28:34.805Z,-2.4
2018-03-22T03:29:24.845Z,-2.4
2018-03-22T03:30:14.331Z,-2.4
2018-03-22T03:31:04.678Z,-2.4
2018-03-22T03:31:54.452Z,-2.4
2018-03-22T03:32:44.510Z,-2.4
2018-03-22T03:33:34.571Z,-2.4
2018-03-22T03:34:25.207Z,-2.4
2018-03-22T03:35:14.385Z,-2.4
2018-03-22T03:36:04.537Z,-2.4
2018-03-22T03:36:55.394Z,-2.4
2018-03-22T03:37:44.950Z,-2.4
2018-03-22T03:38:34.913Z,-2.4
2018-03-22T03:39:25.254Z,-2.4
2018-03-22T03:40:15.027Z,-2.4
2018-03-22T03:41:05.382Z,-2.4
2018-03-22T03:41:55.240Z,-2.4
2018-03-22T03:42:45.503Z,-2.4
2018-03-22T03:43:35.840Z,-2.4
2018-03-22T03:44:25.334Z,-2.4
2018-03-22T03:45:15.677Z,-2.4
2018-03-22T03:46:05.229Z,-2.4
2018-03-22T03:46:55.781Z,-2.4
2018-03-22T03:47:45.554Z,-2.4
2018-03-22T03:48:35.987Z,-2.4
2018-03-22T03:49:25.759Z,-2.4
2018-03-22T03:50:16.299Z,-2.4
2018-03-22T03:51:06.368Z,-2.4
2018-03-22T03:51:56.129Z,-2.4
2018-03-22T03:52:46.499Z,-2.4
2018-03-22T03:53:36.530Z,-2.4
2018-03-22T03:54:26.579Z,-2.5
2018-03-22T03:55:16.464Z,-2.4
2018-03-22T03:56:06.435Z,-2.4
2018-03-22T03:56:56.379Z,-2.4
2018-03-22T03:57:46.838Z,-2.4
2018-03-22T03:58:36.593Z,-2.4
2018-03-22T03:59:26.664Z,-2.5
2018-03-22T04:00:16.503Z,-2.5
2018-03-22T04:01:07.072Z,-2.5
2018-03-22T04:01:56.837Z,-2.4
2018-03-22T04:02:46.884Z,-2.5
2018-03-22T04:03:36.934Z,-2.4
2018-03-22T04:04:27.013Z,-2.4
2018-03-22T04:05:17.355Z,-2.5
2018-03-22T04:06:07.120Z,-2.5
2018-03-22T04:06:56.600Z,-2.5
2018-03-22T04:07:47.225Z,-2.5
2018-03-22T04:08:37.283Z,-2.5
2018-03-22T04:09:27.638Z,-2.5
2018-03-22T04:10:17.404Z,-2.5
2018-03-22T04:11:07.537Z,-2.5
2018-03-22T04:11:57.809Z,-2.5
2018-03-22T04:12:47.858Z,-2.5
2018-03-22T04:13:37.942Z,-2.5
2018-03-22T04:14:27.692Z,-2.5
2018-03-22T04:15:17.462Z,-2.5
2018-03-22T04:16:07.825Z,-2.6
2018-03-22T04:16:58.218Z,-2.5
2018-03-22T04:17:47.934Z,-2.5
2018-03-22T04:18:37.700Z,-2.5
2018-03-22T04:19:28.040Z,-2.5
2018-03-22T04:20:18.096Z,-2.6
2018-03-22T04:21:07.674Z,-2.5
2018-03-22T04:21:58.019Z,-2.5
2018-03-22T04:22:48.072Z,-2.5
2018-03-22T04:23:38.333Z,-2.5
2018-03-22T04:24:28.492Z,-2.5
2018-03-22T04:25:18.262Z,-2.6
2018-03-22T04:26:08.316Z,-2.6
2018-03-22T04:26:58.569Z,-2.6
2018-03-22T04:27:48.973Z,-2.6
2018-03-22T04:28:38.785Z,-2.6
2018-03-22T04:29:29.061Z,-2.6
2018-03-22T04:30:19.091Z,-2.6
2018-03-22T04:31:08.871Z,-2.6
2018-03-22T04:31:58.909Z,-2.6
2018-03-22T04:32:49.279Z,-2.6
2018-03-22T04:33:38.736Z,-2.6
2018-03-22T04:34:29.365Z,-2.6
2018-03-22T04:35:19.440Z,-2.6
2018-03-22T04:36:08.928Z,-2.6
2018-03-22T04:36:59.271Z,-2.6
2018-03-22T04:37:49.035Z,-2.6
2018-03-22T04:38:39.663Z,-2.6
2018-03-22T04:39:29.158Z,-2.6
2018-03-22T04:40:19.383Z,-2.6
2018-03-22T04:41:09.653Z,-2.6
2018-03-22T04:41:59.709Z,-2.6
2018-03-22T04:42:49.970Z,-2.6
2018-03-22T04:43:39.246Z,-2.6
2018-03-22T04:44:29.802Z,-2.6
2018-03-22T04:45:20.145Z,-2.6
2018-03-22T04:46:09.795Z,-2.6
2018-03-22T04:46:59.480Z,-2.6
2018-03-22T04:47:49.739Z,-2.6
2018-03-22T04:48:40.376Z,-2.6
2018-03-22T04:49:30.130Z,-2.6
2018-03-22T04:50:19.905Z,-2.6
2018-03-22T04:51:10.055Z,-2.6
2018-03-22T04:52:00.117Z,-2.6
2018-03-22T04:52:50.369Z,-2.6
2018-03-22T04:53:40.696Z,-2.6
2018-03-22T04:54:30.488Z,-2.6
2018-03-22T04:55:20.810Z,-2.6
2018-03-22T04:56:10.611Z,-2.6
2018-03-22T04:57:00.640Z,-2.6
2018-03-22T04:57:50.994Z,-2.6
2018-03-22T04:58:40.777Z,-2.6
2018-03-22T04:59:30.848Z,-2.6
2018-03-22T05:00:20.897Z,-2.6
2018-03-22T05:01:10.959Z,-2.6
2018-03-22T05:02:00.717Z,-2.6
2018-03-22T05:02:51.068Z,-2.6
2018-03-22T05:03:41.395Z,-2.6
2018-03-22T05:04:31.171Z,-2.6
2018-03-22T05:05:21.511Z,-2.6
2018-03-22T05:06:11.343Z,-2.6
2018-03-22T05:07:01.402Z,-2.6
2018-03-22T05:07:51.699Z,-2.6
2018-03-22T05:08:41.757Z,-2.6
2018-03-22T05:09:31.805Z,-2.6
2018-03-22T05:10:21.899Z,-2.6
2018-03-22T05:11:11.923Z,-2.6
2018-03-22T05:12:01.997Z,-2.6
2018-03-22T05:12:51.756Z,-2.6
2018-03-22T05:13:41.884Z,-2.6
2018-03-22T05:14:32.180Z,-2.6
2018-03-22T05:15:22.240Z,-2.6
2018-03-22T05:16:12.006Z,-2.6
2018-03-22T05:17:02.065Z,-2.6
2018-03-22T05:17:52.381Z,-2.6
2018-03-22T05:18:42.620Z,-2.6
2018-03-22T05:19:32.220Z,-2.6
2018-03-22T05:20:22.299Z,-2.6
2018-03-22T05:21:12.620Z,-2.6
2018-03-22T05:22:02.679Z,-2.6
2018-03-22T05:22:52.454Z,-2.6
2018-03-22T05:23:42.802Z,-2.6
2018-03-22T05:24:32.907Z,-2.6
2018-03-22T05:25:22.905Z,-2.6
2018-03-22T05:26:12.957Z,-2.6
2018-03-22T05:27:03.041Z,-2.6
2018-03-22T05:27:53.081Z,-2.6
2018-03-22T05:28:43.142Z,-2.6
2018-03-22T05:29:33.199Z,-2.6
2018-03-22T05:30:23.261Z,-2.6
2018-03-22T05:31:13.322Z,-2.6
2018-03-22T05:32:03.097Z,-2.6
2018-03-22T05:32:53.427Z,-2.6
2018-03-22T05:33:43.478Z,-2.6
2018-03-22T05:34:33.589Z,-2.6
2018-03-22T05:35:23.608Z,-2.6
2018-03-22T05:36:13.647Z,-2.6
2018-03-22T05:37:03.736Z,-2.6
2018-03-22T05:37:53.768Z,-2.6
2018-03-22T05:38:43.838Z,-2.6
2018-03-22T05:39:33.888Z,-2.6
2018-03-22T05:40:23.942Z,-2.6
2018-03-22T05:41:13.996Z,-2.6
2018-03-22T05:42:04.094Z,-2.6
2018-03-22T05:42:54.108Z,-2.6
2018-03-22T05:43:44.180Z,-2.6
2018-03-22T05:44:34.262Z,-2.6
2018-03-22T05:45:24.010Z,-2.6
2018-03-22T05:46:14.073Z,-2.6
2018-03-22T05:47:04.122Z,-2.6
2018-03-22T05:47:53.993Z,-2.6
2018-03-22T05:48:44.533Z,-2.6
2018-03-22T05:49:34.317Z,-2.6
2018-03-22T05:50:24.258Z,-2.6
2018-03-22T05:51:14.230Z,-2.6
2018-03-22T05:52:04.366Z,-2.6
2018-03-22T05:52:54.260Z,-2.6
2018-03-22T05:53:44.312Z,-2.6
2018-03-22T05:54:34.651Z,-2.6
2018-03-22T05:55:24.720Z,-2.6
2018-03-22T05:56:14.485Z,-2.6
2018-03-22T05:57:04.635Z,-2.6
2018-03-22T05:57:55.168Z,-2.6
2018-03-22T05:58:44.953Z,-2.6
2018-03-22T05:59:35.102Z,-2.6
2018-03-22T06:00:24.865Z,-2.6
2018-03-22T06:01:15.403Z,-2.6
2018-03-22T06:02:05.187Z,-2.6
2018-03-22T06:02:55.528Z,-2.6
2018-03-22T06:03:45.375Z,-2.6
2018-03-22T06:04:35.062Z,-2.5
2018-03-22T06:05:25.112Z,-2.6
2018-03-22T06:06:15.177Z,-2.6
2018-03-22T06:07:05.234Z,-2.6
2018-03-22T06:07:55.720Z,-2.5
2018-03-22T06:08:46.022Z,-2.5
2018-03-22T06:09:35.702Z,-2.6
2018-03-22T06:10:26.050Z,-2.5
2018-03-22T06:11:15.894Z,-2.5
2018-03-22T06:12:05.865Z,-2.5
2018-03-22T06:12:55.919Z,-2.5
2018-03-22T06:13:45.993Z,-2.5
2018-03-22T06:14:36.313Z,-2.5
2018-03-22T06:15:26.114Z,-2.5
2018-03-22T06:16:16.439Z,-2.5
2018-03-22T06:17:06.229Z,-2.5
2018-03-22T06:17:56.076Z,-2.5
2018-03-22T06:18:46.334Z,-2.4
2018-03-22T06:19:36.092Z,-2.5
2018-03-22T06:20:26.437Z,-2.5
2018-03-22T06:21:16.609Z,-2.4
2018-03-22T06:22:06.571Z,-2.4
2018-03-22T06:22:56.893Z,-2.4
2018-03-22T06:23:46.694Z,-2.4
2018-03-22T06:24:36.529Z,-2.4
2018-03-22T06:25:26.788Z,-2.4
2018-03-22T06:26:16.566Z,-2.4
2018-03-22T06:27:06.711Z,-2.4
2018-03-22T06:27:56.981Z,-2.4
2018-03-22T06:28:47.368Z,-2.4
2018-03-22T06:29:36.878Z,-2.4
2018-03-22T06:30:26.652Z,-2.4
2018-03-22T06:31:16.798Z,-2.4
2018-03-22T06:32:07.038Z,-2.4
2018-03-22T06:32:56.913Z,-2.4
2018-03-22T06:33:46.884Z,-2.4
2018-03-22T06:34:37.516Z,-2.4
2018-03-22T06:35:27.495Z,-2.4
2018-03-22T06:36:17.355Z,-2.3
2018-03-22T06:37:07.605Z,-2.3
2018-03-22T06:37:57.548Z,-2.3
2018-03-22T06:38:48.005Z,-2.3
2018-03-22T06:39:37.277Z,-2.3
2018-03-22T06:40:27.428Z,-2.3
2018-03-22T06:41:17.698Z,-2.3
2018-03-22T06:42:07.644Z,-2.3
2018-03-22T06:42:58.055Z,-2.3
2018-03-22T06:43:47.770Z,-2.3
2018-03-22T06:44:38.128Z,-2.3
2018-03-22T06:45:28.167Z,-2.3
2018-03-22T06:46:18.248Z,-2.3
2018-03-22T06:47:08.097Z,-2.3
2018-03-22T06:47:58.070Z,-2.3
2018-03-22T06:48:48.116Z,-2.3
2018-03-22T06:49:38.184Z,-2.3
2018-03-22T06:50:28.829Z,-2.3
2018-03-22T06:51:18.080Z,-2.3
2018-03-22T06:52:08.534Z,-2.3
2018-03-22T06:52:59.009Z,-2.3
2018-03-22T06:53:48.557Z,-2.3
2018-03-22T06:54:38.904Z,-2.3
2018-03-22T06:55:28.580Z,-2.2
2018-03-22T06:56:18.688Z,-2.2
2018-03-22T06:57:08.983Z,-2.2
2018-03-22T06:57:59.361Z,-2.2
2018-03-22T06:58:49.197Z,-2.2
2018-03-22T06:59:39.170Z,-2.2
2018-03-22T07:00:29.215Z,-2.2
2018-03-22T07:01:19.366Z,-2.2
2018-03-22T07:02:09.321Z,-2.2
2018-03-22T07:02:59.684Z,-2.2
2018-03-22T07:03:49.455Z,-2.2
2018-03-22T07:04:39.600Z,-2.2
2018-03-22T07:05:29.280Z,-2.2
2018-03-22T07:06:19.612Z,-2.2
2018-03-22T07:07:09.284Z,-2.2
2018-03-22T07:07:59.537Z,-2.2
2018-03-22T07:08:49.512Z,-2.1
2018-03-22T07:09:40.130Z,-2.2
2018-03-22T07:10:29.623Z,-2.2
2018-03-22T07:11:19.965Z,-2.2
2018-03-22T07:12:09.738Z,-2.2
2018-03-22T07:12:59.880Z,-2.1
2018-03-22T07:13:50.153Z,-2.2
2018-03-22T07:14:40.609Z,-2.2
2018-03-22T07:15:30.343Z,-2.1
2018-03-22T07:16:20.401Z,-2.2
2018-03-22T07:17:10.675Z,-2.1
2018-03-22T07:18:00.713Z,-2.1
2018-03-22T07:18:50.785Z,-2.2
2018-03-22T07:19:40.543Z,-2.1
2018-03-22T07:20:30.308Z,-2.1
2018-03-22T07:21:20.553Z,-2.1
2018-03-22T07:22:10.707Z,-2.1
2018-03-22T07:23:00.652Z,-2.1
2018-03-22T07:23:50.834Z,-2.1
2018-03-22T07:24:41.193Z,-2.1
2018-03-22T07:25:30.684Z,-2.1
2018-03-22T07:26:21.010Z,-2.1
2018-03-22T07:27:11.342Z,-2.1
2018-03-22T07:28:01.125Z,-2.1
2018-03-22T07:28:50.979Z,-2.1
2018-03-22T07:29:41.540Z,-2.1
2018-03-22T07:30:31.010Z,-2.1
2018-03-22T07:31:21.646Z,-2.1
2018-03-22T07:32:11.713Z,-2.1
2018-03-22T07:33:01.467Z,-2.1
2018-03-22T07:33:51.467Z,-2.1
2018-03-22T07:34:41.294Z,-2.1
2018-03-22T07:35:31.906Z,-2.1
2018-03-22T07:36:21.973Z,-2.1
2018-03-22T07:37:11.749Z,-2.1
2018-03-22T07:38:02.085Z,-2.1
2018-03-22T07:38:52.162Z,-2.1
2018-03-22T07:39:42.225Z,-2.1
2018-03-22T07:40:31.695Z,-2.1
2018-03-22T07:41:22.048Z,-2.1
2018-03-22T07:42:11.810Z,-2.1
2018-03-22T07:43:01.867Z,-2.1
2018-03-22T07:43:51.813Z,-2.1
2018-03-22T07:44:42.545Z,-2
2018-03-22T07:45:32.333Z,-2.1
2018-03-22T07:46:22.375Z,-2.1
2018-03-22T07:47:12.458Z,-2
2018-03-22T07:48:02.504Z,-2
2018-03-22T07:48:52.561Z,-2
2018-03-22T07:49:42.913Z,-2
2018-03-22T07:50:32.680Z,-2
2018-03-22T07:51:22.729Z,-2
2018-03-22T07:52:12.293Z,-1.9
2018-03-22T07:53:03.145Z,-1.9
2018-03-22T07:53:52.896Z,-1.9
2018-03-22T07:54:42.953Z,-1.9
2018-03-22T07:55:33.014Z,-1.9
2018-03-22T07:56:23.353Z,-1.9
2018-03-22T07:57:13.432Z,-1.9
2018-03-22T07:58:02.987Z,-1.9
2018-03-22T07:58:53.593Z,-1.9
2018-03-22T07:59:43.600Z,-1.9
2018-03-22T08:00:33.374Z,-1.9
2018-03-22T08:01:23.134Z,-1.9
2018-03-22T08:02:13.202Z,-1.8
2018-03-22T08:03:03.525Z,-1.8
2018-03-22T08:03:53.592Z,-1.8
2018-03-22T08:04:43.365Z,-1.8
2018-03-22T08:05:34.007Z,-1.8
2018-03-22T08:06:23.769Z,-1.8
2018-03-22T08:07:13.540Z,-1.8
2018-03-22T08:08:04.185Z,-1.8
2018-03-22T08:08:53.544Z,-1.7
2018-03-22T08:09:44.295Z,-1.7
2018-03-22T08:10:34.052Z,-1.7
2018-03-22T08:11:24.109Z,-1.6
2018-03-22T08:12:14.461Z,-1.6
2018-03-22T08:13:04.214Z,-1.6
2018-03-22T08:13:54.587Z,-1.6
2018-03-22T08:14:44.049Z,-1.6
2018-03-22T08:15:34.392Z,-1.6
2018-03-22T08:16:24.754Z,-1.6
2018-03-22T08:17:14.517Z,-1.6
2018-03-22T08:18:04.867Z,-1.5
2018-03-22T08:18:54.434Z,-1.5
2018-03-22T08:19:44.283Z,-1.5
2018-03-22T08:20:35.131Z,-1.4
2018-03-22T08:21:24.600Z,-1.4
2018-03-22T08:22:14.858Z,-1.4
2018-03-22T08:23:04.426Z,-1.4
2018-03-22T08:23:54.773Z,-1.4
2018-03-22T08:24:45.035Z,-1.3
2018-03-22T08:25:34.892Z,-1.3
2018-03-22T08:26:25.425Z,-1.3
2018-03-22T08:27:15.502Z,-1.3
2018-03-22T08:28:05.346Z,-1.3
2018-03-22T08:28:55.596Z,-1.2
2018-03-22T08:29:45.381Z,-1.2
2018-03-22T08:30:35.151Z,-1.2
2018-03-22T08:31:25.488Z,-1.2
2018-03-22T08:32:15.256Z,-1.1
2018-03-22T08:33:05.911Z,-1.1
2018-03-22T08:33:55.675Z,-1.1
2018-03-22T08:34:46.005Z,-1.1
2018-03-22T08:35:35.798Z,-1.1
2018-03-22T08:36:25.837Z,-1.1
2018-03-22T08:37:15.890Z,-1
2018-03-22T08:40:36.124Z,-0.9
2018-03-22T08:41:26.560Z,-0.9
2018-03-22T08:42:16.246Z,-0.8
2018-03-22T08:43:06.582Z,-0.8
2018-03-22T08:43:56.357Z,-0.8
2018-03-22T08:44:46.733Z,-0.8
2018-03-22T08:45:35.989Z,-0.7
2018-03-22T08:46:26.815Z,-0.7
2018-03-22T08:47:16.592Z,-0.7
2018-03-22T08:48:06.628Z,-0.6
2018-03-22T08:48:56.512Z,-0.6
2018-03-22T08:49:47.040Z,-0.6
2018-03-22T08:50:36.836Z,-0.6
2018-03-22T08:51:26.776Z,-0.5
2018-03-22T08:52:16.925Z,-0.5
2018-03-22T08:53:06.792Z,-0.4
2018-03-22T08:53:56.769Z,-0.4
2018-03-22T08:54:47.531Z,-0.4
2018-03-22T08:55:37.437Z,-0.4
2018-03-22T08:56:27.514Z,-0.3
2018-03-22T08:57:17.062Z,-0.3
2018-03-22T08:58:07.174Z,-0.3
2018-03-22T08:58:57.205Z,-0.3
2018-03-22T08:59:47.201Z,-0.2
2018-03-22T09:00:37.507Z,-0.2
2018-03-22T09:01:27.361Z,-0.1
2018-03-22T09:02:17.632Z,-0.1
2018-03-22T09:03:07.394Z,-0.1
2018-03-22T09:03:57.731Z,0
2018-03-22T09:04:47.793Z,0
2018-03-22T09:05:37.927Z,0
2018-03-22T09:06:28.206Z,0.1
2018-03-22T09:07:17.474Z,0.1
2018-03-22T09:08:08.089Z,0.1
2018-03-22T09:08:58.076Z,0.1
2018-03-22T09:09:48.562Z,0.2
2018-03-22T09:10:38.181Z,0.2
2018-03-22T09:11:28.262Z,0.2
2018-03-22T09:12:18.303Z,0.3
2018-03-22T09:13:08.250Z,0.3
2018-03-22T09:13:58.701Z,0.3
2018-03-22T09:14:48.463Z,0.3
2018-03-22T09:15:38.526Z,0.3
2018-03-22T09:16:28.404Z,0.4
2018-03-22T09:17:18.648Z,0.4
2018-03-22T09:18:09.008Z,0.4
2018-03-22T09:18:58.766Z,0.4
2018-03-22T09:19:48.640Z,0.5
2018-03-22T09:20:38.980Z,0.5
2018-03-22T09:21:28.659Z,0.5
2018-03-22T09:22:18.988Z,0.5
2018-03-22T09:23:09.063Z,0.6
2018-03-22T09:23:59.110Z,0.6
2018-03-22T09:24:49.178Z,0.6
2018-03-22T09:25:38.930Z,0.6
2018-03-22T09:26:29.378Z,0.6
2018-03-22T09:27:19.152Z,0.7
2018-03-22T09:28:09.191Z,0.7
2018-03-22T09:28:59.445Z,0.7
2018-03-22T09:29:49.227Z,0.7
2018-03-22T09:30:39.877Z,0.7
2018-03-22T09:31:29.134Z,0.7
2018-03-22T09:32:19.680Z,0.8
2018-03-22T09:33:09.460Z,0.8
2018-03-22T09:33:59.789Z,0.8
2018-03-22T09:34:50.037Z,0.8
2018-03-22T09:35:40.024Z,0.8
2018-03-22T09:36:29.866Z,0.8
2018-03-22T09:37:20.317Z,0.8
2018-03-22T09:38:10.179Z,0.8
2018-03-22T09:39:00.420Z,0.8
2018-03-22T09:39:50.199Z,0.9
2018-03-22T09:40:40.257Z,0.9
2018-03-22T09:41:30.622Z,0.9
2018-03-22T09:42:20.670Z,0.9
2018-03-22T09:43:10.144Z,0.9
2018-03-22T09:44:00.779Z,0.9
2018-03-22T09:44:50.639Z,0.9
2018-03-22T09:45:40.312Z,0.9
2018-03-22T09:46:30.446Z,0.9
2018-03-22T09:47:21.004Z,0.9
2018-03-22T09:48:10.862Z,1
2018-03-22T09:49:00.824Z,1
2018-03-22T09:49:50.987Z,1
2018-03-22T09:50:40.955Z,1
2018-03-22T09:51:30.789Z,1
2018-03-22T09:52:20.765Z,1
2018-03-22T09:53:11.102Z,1.1
2018-03-22T09:54:00.887Z,1.1
2018-03-22T09:54:50.930Z,1.1
2018-03-22T09:55:41.591Z,1.1
2018-03-22T09:56:30.946Z,1.1
2018-03-22T09:57:21.697Z,1.1
2018-03-22T09:58:11.456Z,1.1
2018-03-22T09:59:01.858Z,1.1
2018-03-22T09:59:51.851Z,1.1
2018-03-22T10:00:41.896Z,1.1
2018-03-22T10:01:31.965Z,1.1
2018-03-22T10:02:22.033Z,1.1
2018-03-22T10:03:11.788Z,1.1
2018-03-22T10:04:01.858Z,1.1
2018-03-22T10:04:52.197Z,1.2
2018-03-22T10:05:41.968Z,1.2
2018-03-22T10:06:32.292Z,1.1
2018-03-22T10:07:22.374Z,1.1
2018-03-22T10:08:12.419Z,1.2
2018-03-22T10:09:02.205Z,1.2
2018-03-22T10:09:52.250Z,1.2
2018-03-22T10:10:42.012Z,1.2
2018-03-22T10:11:32.665Z,1.2
2018-03-22T10:12:22.708Z,1.2
2018-03-22T10:13:12.760Z,1.2
2018-03-22T10:14:02.529Z,1.2
2018-03-22T10:14:52.895Z,1.2
2018-03-22T10:15:42.950Z,1.2
2018-03-22T10:16:32.978Z,1.2
2018-03-22T10:17:22.482Z,1.2
2018-03-22T10:18:13.162Z,1.2
2018-03-22T10:19:02.887Z,1.2
2018-03-22T10:19:53.207Z,1.2
2018-03-22T10:20:43.287Z,1.2
2018-03-22T10:21:33.035Z,1.2
2018-03-22T10:22:23.395Z,1.2
2018-03-22T10:23:13.442Z,1.2
2018-03-22T10:24:03.501Z,1.2
2018-03-22T10:24:53.577Z,1.3
2018-03-22T10:25:43.629Z,1.3
2018-03-22T10:26:33.692Z,1.2
2018-03-22T10:27:23.475Z,1.3
2018-03-22T10:28:13.801Z,1.3
2018-03-22T10:29:03.287Z,1.2
2018-03-22T10:29:53.893Z,1.3
2018-03-22T10:30:43.989Z,1.3
2018-03-22T10:31:34.022Z,1.2
2018-03-22T10:32:24.087Z,1.3
2018-03-22T10:33:14.147Z,1.2
2018-03-22T10:34:04.231Z,1.3
2018-03-22T10:34:54.239Z,1.3
2018-03-22T10:35:43.781Z,1.3
2018-03-22T10:36:33.798Z,1.3
2018-03-22T10:37:23.649Z,1.3
2018-03-22T10:38:14.689Z,1.3
2018-03-22T10:39:04.256Z,1.3
2018-03-22T10:39:53.819Z,1.3
2018-03-22T10:40:44.359Z,1.3
2018-03-22T10:41:34.419Z,1.3
2018-03-22T10:42:24.482Z,1.3
2018-03-22T10:43:14.535Z,1.3
2018-03-22T10:44:04.295Z,1.3
2018-03-22T10:44:54.664Z,1.3
2018-03-22T10:45:44.718Z,1.3
2018-03-22T10:46:34.774Z,1.3
2018-03-22T10:47:24.823Z,1.3
2018-03-22T10:48:14.878Z,1.3
2018-03-22T10:49:04.650Z,1.3
2018-03-22T10:49:54.805Z,1.3
2018-03-22T10:50:44.758Z,1.3
2018-03-22T10:51:34.623Z,1.3
2018-03-22T10:52:25.450Z,1.3
2018-03-22T10:53:15.225Z,1.3
2018-03-22T10:54:05.273Z,1.3
2018-03-22T10:54:55.325Z,1.3
2018-03-22T10:55:45.417Z,1.3
2018-03-22T10:56:35.545Z,1.3
2018-03-22T10:57:25.225Z,1.3
2018-03-22T10:58:15.274Z,1.3
2018-03-22T10:59:05.610Z,1.3
2018-03-22T10:59:55.275Z,1.4
2018-03-22T11:00:45.729Z,1.3
2018-03-22T11:01:35.214Z,1.4
2018-03-22T11:02:25.940Z,1.4
2018-03-22T11:03:15.995Z,1.4
2018-03-22T11:04:06.277Z,1.4
2018-03-22T11:04:55.734Z,1.4
2018-03-22T11:05:46.095Z,1.4
2018-03-22T11:06:36.426Z,1.4
2018-03-22T11:07:26.493Z,1.4
2018-03-22T11:08:16.542Z,1.4
2018-03-22T11:09:06.597Z,1.4
2018-03-22T11:09:56.371Z,1.4
2018-03-22T11:10:46.412Z,1.4
2018-03-22T11:11:36.761Z,1.4
2018-03-22T11:12:26.847Z,1.4
2018-03-22T11:13:16.389Z,1.5
2018-03-22T11:14:06.942Z,1.5
2018-03-22T11:14:56.434Z,1.5
2018-03-22T11:15:46.779Z,1.5